Overview Statistics Trail Chart Weather Telemetry Raw packets
 

This is the latest recevied weather packets stored in our database for station/object W5CDN. If no packets are shown the sender has not sent any weather packets the latest 10 day(s).

<< 76 77 78 79 80 81 82 >>
Time Temp. Humidity Pressure Rain* Wind** Luminosity Snow
1787860436 34.44° C 53% 1013.3 hPa 0 mm - - -
1787860136 35° C 53% 1013.3 hPa 0 mm - - -
1787859836 35° C 54% 1013.4 hPa 0 mm - - -
1787859536 34.44° C 53% 1013.4 hPa 0 mm - - -
1787859236 35° C 54% 1013.6 hPa 0 mm - - -
1787858936 34.44° C 55% 1013.5 hPa 0 mm - - -
1787858636 34.44° C 54% 1013.5 hPa 0 mm - - -
1787858336 34.44° C 54% 1013.4 hPa 0 mm - - -
1787858036 34.44° C 54% 1013.6 hPa 0 mm - - -
1787857736 34.44° C 54% 1013.4 hPa 0 mm - - -
1787857436 35° C 53% 1013.5 hPa 0 mm - - -
1787857136 34.44° C 54% 1013.8 hPa 0 mm - - -
1787856836 34.44° C 54% 1013.8 hPa 0 mm - - -
1787856536 34.44° C 54% 1013.8 hPa 0 mm - - -
1787856236 33.89° C 55% 1013.7 hPa 0 mm - - -
1787855936 33.89° C 55% 1013.7 hPa 0 mm - - -
1787855636 34.44° C 56% 1013.7 hPa 0 mm - - -
1787855336 34.44° C 55% 1013.6 hPa 0 mm - - -
1787855036 33.33° C 58% 1013.6 hPa 0 mm - - -
1787854736 33.33° C 58% 1014 hPa 0 mm - - -
1787854436 33.89° C 58% 1013.7 hPa 0 mm - - -
1787854136 33.89° C 57% 1013.8 hPa 0 mm - - -
1787853836 33.89° C 55% 1014.1 hPa 0 mm - - -
1787853536 32.78° C 58% 1014.2 hPa 0 mm - - -
1787853236 34.44° C 55% 1014 hPa 0 mm - - -

* Rain latest hour (hover to see other rain measurements)
** Current wind speed in m/s (hover to see current wind gust speed)